sensor_id;sensor_type;location;lat;lon;timestamp;pressure;altitude;pressure_sealevel;temperature;humidity
79006;BME280;69202;45.498;-73.582;2023-07-28T00:02:11;100408.47;;;22.43;58.40
79006;BME280;69202;45.498;-73.582;2023-07-28T00:04:37;100435.66;;;22.50;57.50
79006;BME280;69202;45.498;-73.582;2023-07-28T00:07:04;100437.97;;;22.37;58.83
79006;BME280;69202;45.498;-73.582;2023-07-28T00:09:30;100261.75;;;21.33;61.61
79006;BME280;69202;45.498;-73.582;2023-07-28T00:12:00;100350.13;;;21.76;62.43
79006;BME280;69202;45.498;-73.582;2023-07-28T00:14:26;100268.34;;;21.32;62.45
79006;BME280;69202;45.498;-73.582;2023-07-28T00:16:53;100429.53;;;22.18;60.06
79006;BME280;69202;45.498;-73.582;2023-07-28T00:19:20;100385.63;;;21.83;58.04
79006;BME280;69202;45.498;-73.582;2023-07-28T00:21:50;100447.38;;;22.26;59.32
79006;BME280;69202;45.498;-73.582;2023-07-28T00:24:16;100308.78;;;21.37;61.13
79006;BME280;69202;45.498;-73.582;2023-07-28T00:26:43;100435.91;;;22.09;62.30
79006;BME280;69202;45.498;-73.582;2023-07-28T00:29:09;100229.22;;;20.76;62.85
79006;BME280;69202;45.498;-73.582;2023-07-28T00:31:35;100359.28;;;21.61;61.16
79006;BME280;69202;45.498;-73.582;2023-07-28T00:34:02;100476.63;;;22.17;59.12
79006;BME280;69202;45.498;-73.582;2023-07-28T00:36:28;100302.50;;;21.11;61.03
79006;BME280;69202;45.498;-73.582;2023-07-28T00:38:54;100270.09;;;20.98;62.33
79006;BME280;69202;45.498;-73.582;2023-07-28T00:41:20;100276.97;;;21.06;63.78
79006;BME280;69202;45.498;-73.582;2023-07-28T00:43:46;100107.69;;;19.94;64.34
79006;BME280;69202;45.498;-73.582;2023-07-28T00:46:12;100348.94;;;21.38;63.34
79006;BME280;69202;45.498;-73.582;2023-07-28T00:48:40;100346.47;;;21.31;61.22
79006;BME280;69202;45.498;-73.582;2023-07-28T00:51:07;100488.78;;;22.11;59.45
79006;BME280;69202;45.498;-73.582;2023-07-28T00:53:33;100334.44;;;20.97;60.41
79006;BME280;69202;45.498;-73.582;2023-07-28T00:56:00;100270.72;;;20.69;62.00
79006;BME280;69202;45.498;-73.582;2023-07-28T00:58:27;100260.81;;;20.63;63.17
79006;BME280;69202;45.498;-73.582;2023-07-28T01:00:53;100398.41;;;21.43;64.56
79006;BME280;69202;45.498;-73.582;2023-07-28T01:03:19;100499.22;;;22.14;64.89
79006;BME280;69202;45.498;-73.582;2023-07-28T01:11:12;100477.81;;;21.85;61.31
79006;BME280;69202;45.498;-73.582;2023-07-28T01:13:37;100448.69;;;21.74;64.74
79006;BME280;69202;45.498;-73.582;2023-07-28T01:16:04;100500.31;;;22.18;65.04
79006;BME280;69202;45.498;-73.582;2023-07-28T01:18:30;100485.75;;;22.02;65.33
79006;BME280;69202;45.498;-73.582;2023-07-28T01:20:58;100410.22;;;21.54;65.84
79006;BME280;69202;45.498;-73.582;2023-07-28T01:26:06;100508.31;;;22.14;60.25
79006;BME280;69202;45.498;-73.582;2023-07-28T01:28:37;100509.72;;;22.12;63.02
79006;BME280;69202;45.498;-73.582;2023-07-28T01:31:04;100428.66;;;21.58;65.59
79006;BME280;69202;45.498;-73.582;2023-07-28T01:33:31;100506.91;;;22.17;64.37
79006;BME280;69202;45.498;-73.582;2023-07-28T01:35:57;100505.28;;;22.06;64.53
79006;BME280;69202;45.498;-73.582;2023-07-28T01:38:25;100350.06;;;21.17;65.45
79006;BME280;69202;45.498;-73.582;2023-07-28T01:40:51;100454.44;;;21.78;66.17
79006;BME280;69202;45.498;-73.582;2023-07-28T01:43:17;100482.19;;;21.97;64.83
79006;BME280;69202;45.498;-73.582;2023-07-28T01:45:43;100509.19;;;22.10;62.21
79006;BME280;69202;45.498;-73.582;2023-07-28T01:48:09;100497.63;;;21.93;61.62
79006;BME280;69202;45.498;-73.582;2023-07-28T01:50:36;100520.44;;;22.03;62.31
79006;BME280;69202;45.498;-73.582;2023-07-28T01:53:02;100485.78;;;21.87;65.47
79006;BME280;69202;45.498;-73.582;2023-07-28T01:55:28;100522.09;;;22.04;66.38
79006;BME280;69202;45.498;-73.582;2023-07-28T01:57:57;100357.22;;;21.08;66.10
79006;BME280;69202;45.498;-73.582;2023-07-28T02:00:23;100514.03;;;22.28;67.94
79006;BME280;69202;45.498;-73.582;2023-07-28T02:02:50;100516.53;;;22.25;65.28
79006;BME280;69202;45.498;-73.582;2023-07-28T02:05:16;100291.84;;;20.79;61.90
79006;BME280;69202;45.498;-73.582;2023-07-28T02:07:42;100209.50;;;20.03;63.14
79006;BME280;69202;45.498;-73.582;2023-07-28T02:10:11;100285.00;;;20.77;64.32
79006;BME280;69202;45.498;-73.582;2023-07-28T02:12:38;100287.75;;;20.71;66.30
79006;BME280;69202;45.498;-73.582;2023-07-28T02:15:05;100271.56;;;20.50;66.21
79006;BME280;69202;45.498;-73.582;2023-07-28T02:17:32;100262.75;;;20.37;67.12
79006;BME280;69202;45.498;-73.582;2023-07-28T02:19:58;100563.38;;;22.25;67.35
79006;BME280;69202;45.498;-73.582;2023-07-28T02:22:23;100363.53;;;21.18;66.92
79006;BME280;69202;45.498;-73.582;2023-07-28T02:24:49;100349.28;;;20.91;63.17
79006;BME280;69202;45.498;-73.582;2023-07-28T02:27:15;100484.16;;;21.86;65.54
79006;BME280;69202;45.498;-73.582;2023-07-28T02:29:41;100539.41;;;22.25;68.26
79006;BME280;69202;45.498;-73.582;2023-07-28T02:32:14;100577.41;;;22.23;67.59
79006;BME280;69202;45.498;-73.582;2023-07-28T02:34:40;100450.03;;;21.82;67.26
79006;BME280;69202;45.498;-73.582;2023-07-28T02:37:06;100155.97;;;20.05;69.84
79006;BME280;69202;45.498;-73.582;2023-07-28T02:39:32;100292.38;;;20.91;68.97
79006;BME280;69202;45.498;-73.582;2023-07-28T02:41:58;100555.03;;;22.45;67.90
79006;BME280;69202;45.498;-73.582;2023-07-28T02:44:24;100475.59;;;21.87;66.63
79006;BME280;69202;45.498;-73.582;2023-07-28T02:46:50;100553.66;;;22.37;64.00
79006;BME280;69202;45.498;-73.582;2023-07-28T02:49:16;100484.97;;;21.86;65.05
79006;BME280;69202;45.498;-73.582;2023-07-28T02:51:42;100307.81;;;20.57;64.67
79006;BME280;69202;45.498;-73.582;2023-07-28T02:54:08;100557.53;;;22.36;69.31
79006;BME280;69202;45.498;-73.582;2023-07-28T02:56:34;100548.47;;;22.31;68.39
79006;BME280;69202;45.498;-73.582;2023-07-28T02:59:04;100560.78;;;22.48;69.41
79006;BME280;69202;45.498;-73.582;2023-07-28T03:01:38;100490.97;;;22.14;69.61
79006;BME280;69202;45.498;-73.582;2023-07-28T03:04:05;100424.22;;;21.63;67.27
79006;BME280;69202;45.498;-73.582;2023-07-28T03:06:31;100256.44;;;20.67;65.95
79006;BME280;69202;45.498;-73.582;2023-07-28T03:09:00;100123.34;;;19.78;64.16
79006;BME280;69202;45.498;-73.582;2023-07-28T03:11:26;100388.00;;;21.04;64.47
79006;BME280;69202;45.498;-73.582;2023-07-28T03:13:52;100326.47;;;20.90;67.41
79006;BME280;69202;45.498;-73.582;2023-07-28T03:16:18;100335.50;;;21.01;67.19
79006;BME280;69202;45.498;-73.582;2023-07-28T03:18:44;100176.84;;;19.91;66.41
79006;BME280;69202;45.498;-73.582;2023-07-28T03:21:10;100320.44;;;20.88;67.44
79006;BME280;69202;45.498;-73.582;2023-07-28T03:23:36;100170.53;;;19.96;69.70
79006;BME280;69202;45.498;-73.582;2023-07-28T03:26:02;100535.75;;;22.40;69.53
79006;BME280;69202;45.498;-73.582;2023-07-28T03:28:28;100269.13;;;20.43;68.49
79006;BME280;69202;45.498;-73.582;2023-07-28T03:30:54;100363.84;;;20.96;64.77
79006;BME280;69202;45.498;-73.582;2023-07-28T03:33:20;100609.38;;;22.24;67.32
79006;BME280;69202;45.498;-73.582;2023-07-28T03:35:46;100410.81;;;21.20;63.52
79006;BME280;69202;45.498;-73.582;2023-07-28T03:38:14;100236.13;;;20.33;68.27
79006;BME280;69202;45.498;-73.582;2023-07-28T03:40:40;100307.53;;;20.68;67.98
79006;BME280;69202;45.498;-73.582;2023-07-28T03:43:06;100448.72;;;21.54;67.42
79006;BME280;69202;45.498;-73.582;2023-07-28T03:45:35;100427.59;;;21.34;70.08
79006;BME280;69202;45.498;-73.582;2023-07-28T03:48:04;100536.38;;;22.16;69.99
79006;BME280;69202;45.498;-73.582;2023-07-28T03:50:30;100358.88;;;20.98;69.16
79006;BME280;69202;45.498;-73.582;2023-07-28T03:52:56;100443.84;;;21.30;70.83
79006;BME280;69202;45.498;-73.582;2023-07-28T03:55:22;100328.66;;;20.98;71.10
79006;BME280;69202;45.498;-73.582;2023-07-28T03:57:51;100523.19;;;22.13;70.92
79006;BME280;69202;45.498;-73.582;2023-07-28T04:00:17;100430.28;;;21.65;69.71
79006;BME280;69202;45.498;-73.582;2023-07-28T04:02:43;100251.78;;;20.48;66.70
79006;BME280;69202;45.498;-73.582;2023-07-28T04:05:09;100261.09;;;20.21;63.47
79006;BME280;69202;45.498;-73.582;2023-07-28T04:07:35;100566.72;;;22.06;62.74
79006;BME280;69202;45.498;-73.582;2023-07-28T04:10:01;100580.16;;;22.28;67.14
79006;BME280;69202;45.498;-73.582;2023-07-28T04:12:27;100351.19;;;20.90;68.56
79006;BME280;69202;45.498;-73.582;2023-07-28T04:14:53;100610.41;;;22.38;68.06
79006;BME280;69202;45.498;-73.582;2023-07-28T04:17:19;100413.03;;;21.28;69.20
79006;BME280;69202;45.498;-73.582;2023-07-28T04:19:44;100584.25;;;22.41;70.65
79006;BME280;69202;45.498;-73.582;2023-07-28T04:22:10;100397.66;;;21.27;70.08
79006;BME280;69202;45.498;-73.582;2023-07-28T04:24:36;100563.38;;;22.19;70.11
79006;BME280;69202;45.498;-73.582;2023-07-28T04:27:02;100461.34;;;21.75;71.40
79006;BME280;69202;45.498;-73.582;2023-07-28T04:29:28;100375.34;;;21.19;70.01
79006;BME280;69202;45.498;-73.582;2023-07-28T04:31:54;100439.06;;;21.67;67.04
79006;BME280;69202;45.498;-73.582;2023-07-28T04:34:20;100575.13;;;22.45;66.17
79006;BME280;69202;45.498;-73.582;2023-07-28T04:36:46;100507.25;;;21.95;67.10
79006;BME280;69202;45.498;-73.582;2023-07-28T04:39:12;100193.56;;;19.79;63.01
79006;BME280;69202;45.498;-73.582;2023-07-28T04:41:38;100247.66;;;20.25;66.53
79006;BME280;69202;45.498;-73.582;2023-07-28T04:44:04;100409.16;;;21.14;66.21
79006;BME280;69202;45.498;-73.582;2023-07-28T04:46:30;100372.38;;;20.95;67.79
79006;BME280;69202;45.498;-73.582;2023-07-28T04:48:58;100605.47;;;22.35;70.78
79006;BME280;69202;45.498;-73.582;2023-07-28T04:51:27;100289.69;;;20.45;70.64
79006;BME280;69202;45.498;-73.582;2023-07-28T04:53:53;100596.16;;;22.16;70.75
79006;BME280;69202;45.498;-73.582;2023-07-28T04:56:19;100487.25;;;21.69;68.61
79006;BME280;69202;45.498;-73.582;2023-07-28T04:58:45;100428.41;;;21.24;65.16
79006;BME280;69202;45.498;-73.582;2023-07-28T05:01:11;100480.38;;;21.46;65.54
79006;BME280;69202;45.498;-73.582;2023-07-28T05:03:38;100576.06;;;22.05;65.45
79006;BME280;69202;45.498;-73.582;2023-07-28T05:06:04;100413.28;;;21.12;67.22
79006;BME280;69202;45.498;-73.582;2023-07-28T05:08:30;100528.53;;;21.69;67.81
79006;BME280;69202;45.498;-73.582;2023-07-28T05:10:56;100533.16;;;21.89;68.91
79006;BME280;69202;45.498;-73.582;2023-07-28T05:13:25;100421.81;;;21.10;68.68
79006;BME280;69202;45.498;-73.582;2023-07-28T05:15:51;100604.13;;;22.23;69.92
79006;BME280;69202;45.498;-73.582;2023-07-28T05:18:17;100609.91;;;22.31;70.19
79006;BME280;69202;45.498;-73.582;2023-07-28T05:20:42;100571.94;;;22.08;70.56
79006;BME280;69202;45.498;-73.582;2023-07-28T05:23:08;100392.44;;;20.90;68.54
79006;BME280;69202;45.498;-73.582;2023-07-28T05:25:34;100387.47;;;20.97;65.13
79006;BME280;69202;45.498;-73.582;2023-07-28T05:28:00;100476.56;;;21.37;64.62
79006;BME280;69202;45.498;-73.582;2023-07-28T05:30:26;100391.06;;;20.78;66.49
79006;BME280;69202;45.498;-73.582;2023-07-28T05:32:54;100340.19;;;20.39;66.59
79006;BME280;69202;45.498;-73.582;2023-07-28T05:35:20;100383.09;;;20.76;66.61
79006;BME280;69202;45.498;-73.582;2023-07-28T05:37:46;100518.03;;;21.66;67.55
79006;BME280;69202;45.498;-73.582;2023-07-28T05:40:12;100546.66;;;21.75;69.31
79006;BME280;69202;45.498;-73.582;2023-07-28T05:42:38;100608.53;;;22.18;69.46
79006;BME280;69202;45.498;-73.582;2023-07-28T05:45:05;100551.59;;;21.83;70.87
79006;BME280;69202;45.498;-73.582;2023-07-28T05:47:31;100395.44;;;20.84;66.87
79006;BME280;69202;45.498;-73.582;2023-07-28T05:49:57;100523.59;;;21.51;64.88
79006;BME280;69202;45.498;-73.582;2023-07-28T05:52:23;100554.66;;;21.51;64.85
79006;BME280;69202;45.498;-73.582;2023-07-28T05:54:49;100331.94;;;20.19;66.82
79006;BME280;69202;45.498;-73.582;2023-07-28T05:57:15;100269.56;;;19.74;65.72
79006;BME280;69202;45.498;-73.582;2023-07-28T05:59:41;100592.84;;;22.04;66.07
79006;BME280;69202;45.498;-73.582;2023-07-28T06:02:07;100586.53;;;21.88;68.79
79006;BME280;69202;45.498;-73.582;2023-07-28T06:04:33;100583.78;;;21.93;68.60
79006;BME280;69202;45.498;-73.582;2023-07-28T06:06:59;100606.34;;;22.05;69.51
79006;BME280;69202;45.498;-73.582;2023-07-28T06:09:25;100621.50;;;22.03;69.11
79006;BME280;69202;45.498;-73.582;2023-07-28T06:11:51;100464.97;;;20.94;68.66
79006;BME280;69202;45.498;-73.582;2023-07-28T06:14:16;100371.81;;;20.57;66.22
79006;BME280;69202;45.498;-73.582;2023-07-28T06:16:42;100281.91;;;19.71;64.28
79006;BME280;69202;45.498;-73.582;2023-07-28T06:19:08;100360.25;;;20.35;65.41
79006;BME280;69202;45.498;-73.582;2023-07-28T06:21:34;100384.13;;;20.39;66.88
79006;BME280;69202;45.498;-73.582;2023-07-28T06:24:00;100367.97;;;20.43;66.12
79006;BME280;69202;45.498;-73.582;2023-07-28T06:26:26;100246.72;;;19.53;67.00
79006;BME280;69202;45.498;-73.582;2023-07-28T06:28:52;100360.78;;;20.27;67.96
79006;BME280;69202;45.498;-73.582;2023-07-28T06:31:18;100477.91;;;21.19;68.60
79006;BME280;69202;45.498;-73.582;2023-07-28T06:33:44;100440.25;;;20.99;69.31
79006;BME280;69202;45.498;-73.582;2023-07-28T06:36:10;100502.16;;;21.38;69.15
79006;BME280;69202;45.498;-73.582;2023-07-28T06:38:36;100490.03;;;21.33;66.47
79006;BME280;69202;45.498;-73.582;2023-07-28T06:41:02;100470.78;;;21.18;64.03
79006;BME280;69202;45.498;-73.582;2023-07-28T06:43:28;100548.91;;;21.48;62.91
79006;BME280;69202;45.498;-73.582;2023-07-28T06:45:54;100556.59;;;21.51;67.00
79006;BME280;69202;45.498;-73.582;2023-07-28T06:48:20;100399.84;;;20.64;68.48
79006;BME280;69202;45.498;-73.582;2023-07-28T06:50:46;100292.66;;;20.03;69.60
79006;BME280;69202;45.498;-73.582;2023-07-28T06:53:12;100579.94;;;21.84;69.70
79006;BME280;69202;45.498;-73.582;2023-07-28T06:55:38;100497.16;;;21.45;70.71
79006;BME280;69202;45.498;-73.582;2023-07-28T06:58:05;100281.41;;;20.05;71.94
79006;BME280;69202;45.498;-73.582;2023-07-28T07:00:32;100423.50;;;20.86;68.97
79006;BME280;69202;45.498;-73.582;2023-07-28T07:02:58;100504.06;;;21.47;65.37
79006;BME280;69202;45.498;-73.582;2023-07-28T07:05:23;100569.22;;;21.77;64.89
79006;BME280;69202;45.498;-73.582;2023-07-28T07:07:49;100469.41;;;21.06;66.50
79006;BME280;69202;45.498;-73.582;2023-07-28T07:10:16;100405.63;;;20.68;67.64
79006;BME280;69202;45.498;-73.582;2023-07-28T07:12:41;100515.59;;;21.34;69.93
79006;BME280;69202;45.498;-73.582;2023-07-28T07:15:08;100419.94;;;20.75;68.83
79006;BME280;69202;45.498;-73.582;2023-07-28T07:17:34;100362.19;;;20.50;69.12
79006;BME280;69202;45.498;-73.582;2023-07-28T07:20:00;100374.31;;;20.43;68.86
79006;BME280;69202;45.498;-73.582;2023-07-28T07:22:26;100209.13;;;19.48;66.39
79006;BME280;69202;45.498;-73.582;2023-07-28T07:24:53;100488.63;;;20.90;64.31
79006;BME280;69202;45.498;-73.582;2023-07-28T07:27:19;100580.28;;;21.37;65.45
79006;BME280;69202;45.498;-73.582;2023-07-28T07:29:45;100211.00;;;19.38;67.16
79006;BME280;69202;45.498;-73.582;2023-07-28T07:32:11;100376.16;;;20.38;69.53
79006;BME280;69202;45.498;-73.582;2023-07-28T07:34:37;100430.91;;;20.75;69.99
79006;BME280;69202;45.498;-73.582;2023-07-28T07:37:04;100330.28;;;20.08;69.83
79006;BME280;69202;45.498;-73.582;2023-07-28T07:39:30;100194.25;;;19.24;70.72
79006;BME280;69202;45.498;-73.582;2023-07-28T07:41:56;100392.16;;;20.56;71.36
79006;BME280;69202;45.498;-73.582;2023-07-28T07:44:23;100326.13;;;20.00;70.45
79006;BME280;69202;45.498;-73.582;2023-07-28T07:46:50;100410.78;;;20.39;68.84
79006;BME280;69202;45.498;-73.582;2023-07-28T07:49:15;100302.78;;;19.82;65.65
79006;BME280;69202;45.498;-73.582;2023-07-28T07:51:41;100349.72;;;19.96;66.76
79006;BME280;69202;45.498;-73.582;2023-07-28T07:54:07;100253.22;;;19.31;67.14
79006;BME280;69202;45.498;-73.582;2023-07-28T07:56:33;100463.06;;;20.85;69.29
79006;BME280;69202;45.498;-73.582;2023-07-28T07:58:59;100317.91;;;19.95;69.87
79006;BME280;69202;45.498;-73.582;2023-07-28T08:01:25;100216.25;;;19.44;71.40
79006;BME280;69202;45.498;-73.582;2023-07-28T08:03:51;100225.31;;;19.55;72.65
79006;BME280;69202;45.498;-73.582;2023-07-28T08:06:17;100461.13;;;20.90;71.74
79006;BME280;69202;45.498;-73.582;2023-07-28T08:08:43;100244.59;;;19.70;70.46
79006;BME280;69202;45.498;-73.582;2023-07-28T08:11:09;100383.03;;;20.35;67.19
79006;BME280;69202;45.498;-73.582;2023-07-28T08:13:35;100234.66;;;19.49;64.46
79006;BME280;69202;45.498;-73.582;2023-07-28T08:16:01;100269.00;;;19.67;66.52
79006;BME280;69202;45.498;-73.582;2023-07-28T08:18:27;100403.34;;;20.24;66.73
79006;BME280;69202;45.498;-73.582;2023-07-28T08:20:53;100291.69;;;19.52;67.72
79006;BME280;69202;45.498;-73.582;2023-07-28T08:23:18;100477.09;;;20.88;69.30
79006;BME280;69202;45.498;-73.582;2023-07-28T08:25:45;100367.09;;;20.27;69.39
79006;BME280;69202;45.498;-73.582;2023-07-28T08:28:11;100201.94;;;19.27;70.54
79006;BME280;69202;45.498;-73.582;2023-07-28T08:30:36;100255.72;;;19.48;71.24
79006;BME280;69202;45.498;-73.582;2023-07-28T08:33:02;100215.59;;;19.17;71.23
79006;BME280;69202;45.498;-73.582;2023-07-28T08:35:29;100298.81;;;19.53;68.50
79006;BME280;69202;45.498;-73.582;2023-07-28T08:37:55;100575.28;;;21.44;65.91
79006;BME280;69202;45.498;-73.582;2023-07-28T08:40:20;100535.94;;;21.18;64.33
79006;BME280;69202;45.498;-73.582;2023-07-28T08:42:47;100600.88;;;21.54;66.69
79006;BME280;69202;45.498;-73.582;2023-07-28T08:45:15;100496.03;;;20.90;67.80
79006;BME280;69202;45.498;-73.582;2023-07-28T08:47:41;100579.72;;;21.40;68.69
79006;BME280;69202;45.498;-73.582;2023-07-28T08:50:08;100370.88;;;20.11;69.46
79006;BME280;69202;45.498;-73.582;2023-07-28T08:52:34;100388.50;;;20.15;70.52
79006;BME280;69202;45.498;-73.582;2023-07-28T08:55:00;100631.16;;;21.75;71.35
79006;BME280;69202;45.498;-73.582;2023-07-28T08:57:27;100491.38;;;20.90;68.98
79006;BME280;69202;45.498;-73.582;2023-07-28T08:59:53;100644.63;;;21.66;67.94
79006;BME280;69202;45.498;-73.582;2023-07-28T09:02:19;100657.28;;;21.57;65.13
79006;BME280;69202;45.498;-73.582;2023-07-28T09:04:49;100589.31;;;21.32;63.51
79006;BME280;69202;45.498;-73.582;2023-07-28T09:07:15;100618.22;;;21.45;64.41
79006;BME280;69202;45.498;-73.582;2023-07-28T09:09:41;100539.50;;;20.98;68.31
79006;BME280;69202;45.498;-73.582;2023-07-28T09:12:07;100620.16;;;21.49;67.59
79006;BME280;69202;45.498;-73.582;2023-07-28T09:14:37;100616.03;;;21.52;69.02
79006;BME280;69202;45.498;-73.582;2023-07-28T09:17:11;100581.34;;;21.36;70.38
79006;BME280;69202;45.498;-73.582;2023-07-28T09:19:54;100425.31;;;20.39;69.92
79006;BME280;69202;45.498;-73.582;2023-07-28T09:22:21;100262.59;;;19.41;70.19
79006;BME280;69202;45.498;-73.582;2023-07-28T09:24:53;100430.88;;;20.44;70.70
79006;BME280;69202;45.498;-73.582;2023-07-28T09:27:26;100307.34;;;19.56;70.23
79006;BME280;69202;45.498;-73.582;2023-07-28T09:29:55;100368.16;;;20.06;67.74
79006;BME280;69202;45.498;-73.582;2023-07-28T09:32:29;100609.97;;;21.50;64.76
79006;BME280;69202;45.498;-73.582;2023-07-28T09:35:13;100404.63;;;19.91;64.05
79006;BME280;69202;45.498;-73.582;2023-07-28T09:37:44;100617.38;;;21.44;65.89
79006;BME280;69202;45.498;-73.582;2023-07-28T09:40:16;100241.91;;;19.08;66.89
79006;BME280;69202;45.498;-73.582;2023-07-28T09:42:44;100394.19;;;19.98;69.30
79006;BME280;69202;45.498;-73.582;2023-07-28T09:45:11;100581.56;;;21.24;69.80
79006;BME280;69202;45.498;-73.582;2023-07-28T09:47:38;100421.69;;;20.18;70.78
79006;BME280;69202;45.498;-73.582;2023-07-28T09:50:05;100598.94;;;21.45;70.96
79006;BME280;69202;45.498;-73.582;2023-07-28T09:52:38;100641.63;;;21.73;70.90
79006;BME280;69202;45.498;-73.582;2023-07-28T09:55:10;100606.94;;;21.46;69.11
79006;BME280;69202;45.498;-73.582;2023-07-28T09:57:45;100432.72;;;20.24;66.52
79006;BME280;69202;45.498;-73.582;2023-07-28T10:00:13;100609.69;;;21.31;63.61
79006;BME280;69202;45.498;-73.582;2023-07-28T10:02:40;100426.66;;;20.32;62.81
79006;BME280;69202;45.498;-73.582;2023-07-28T10:05:07;100444.06;;;20.48;64.52
79006;BME280;69202;45.498;-73.582;2023-07-28T10:07:39;100524.06;;;20.92;65.93
79006;BME280;69202;45.498;-73.582;2023-07-28T10:10:07;100382.22;;;20.35;67.62
79006;BME280;69202;45.498;-73.582;2023-07-28T10:12:43;100366.00;;;20.33;69.18
79006;BME280;69202;45.498;-73.582;2023-07-28T10:15:16;100432.81;;;20.80;69.49
79006;BME280;69202;45.498;-73.582;2023-07-28T10:17:45;100296.78;;;20.06;70.23
79006;BME280;69202;45.498;-73.582;2023-07-28T10:20:34;100552.97;;;21.76;70.55
79006;BME280;69202;45.498;-73.582;2023-07-28T10:23:17;100601.38;;;22.17;67.80
79006;BME280;69202;45.498;-73.582;2023-07-28T10:25:44;100454.28;;;21.08;64.41
79006;BME280;69202;45.498;-73.582;2023-07-28T10:28:29;100611.31;;;22.13;64.09
79006;BME280;69202;45.498;-73.582;2023-07-28T10:30:56;100613.78;;;22.15;63.44
79006;BME280;69202;45.498;-73.582;2023-07-28T10:41:35;100620.03;;;22.51;66.74
79006;BME280;69202;45.498;-73.582;2023-07-28T10:44:01;100474.88;;;21.61;68.06
79006;BME280;69202;45.498;-73.582;2023-07-28T10:46:28;100617.53;;;22.50;66.94
79006;BME280;69202;45.498;-73.582;2023-07-28T10:48:54;100514.16;;;21.93;63.55
79006;BME280;69202;45.498;-73.582;2023-07-28T10:51:24;100462.78;;;21.52;61.03
79006;BME280;69202;45.498;-73.582;2023-07-28T10:53:59;100570.56;;;22.15;60.44
79006;BME280;69202;45.498;-73.582;2023-07-28T10:56:26;100633.75;;;22.61;62.92
79006;BME280;69202;45.498;-73.582;2023-07-28T10:58:57;100462.78;;;21.57;63.78
79006;BME280;69202;45.498;-73.582;2023-07-28T11:01:34;100351.47;;;20.94;64.36
79006;BME280;69202;45.498;-73.582;2023-07-28T11:04:26;100626.00;;;22.73;65.75
79006;BME280;69202;45.498;-73.582;2023-07-28T11:06:52;100626.84;;;22.74;65.78
79006;BME280;69202;45.498;-73.582;2023-07-28T11:09:21;100547.28;;;22.47;66.35
79006;BME280;69202;45.498;-73.582;2023-07-28T11:11:49;100535.78;;;22.30;65.07
79006;BME280;69202;45.498;-73.582;2023-07-28T11:14:16;100565.19;;;22.55;63.01
79006;BME280;69202;45.498;-73.582;2023-07-28T11:16:43;100434.41;;;21.62;61.03
79006;BME280;69202;45.498;-73.582;2023-07-28T11:19:16;100308.34;;;20.69;59.81
79006;BME280;69202;45.498;-73.582;2023-07-28T11:21:50;100527.41;;;21.80;62.22
79006;BME280;69202;45.498;-73.582;2023-07-28T11:24:21;100639.50;;;22.85;65.33
79006;BME280;69202;45.498;-73.582;2023-07-28T11:26:47;100501.44;;;22.12;64.07
79006;BME280;69202;45.498;-73.582;2023-07-28T11:29:15;100498.38;;;22.18;64.48
79006;BME280;69202;45.498;-73.582;2023-07-28T11:31:42;100244.38;;;20.48;65.50
79006;BME280;69202;45.498;-73.582;2023-07-28T11:34:15;100623.66;;;23.06;66.57
79006;BME280;69202;45.498;-73.582;2023-07-28T11:36:41;100462.13;;;21.86;62.53
79006;BME280;69202;45.498;-73.582;2023-07-28T11:39:08;100520.94;;;22.26;59.23
79006;BME280;69202;45.498;-73.582;2023-07-28T11:41:36;100453.38;;;21.79;59.77
79006;BME280;69202;45.498;-73.582;2023-07-28T11:44:05;100481.06;;;22.03;60.78
79006;BME280;69202;45.498;-73.582;2023-07-28T11:46:36;100384.88;;;21.57;62.22
79006;BME280;69202;45.498;-73.582;2023-07-28T11:49:18;100625.13;;;23.32;62.75
79006;BME280;69202;45.498;-73.582;2023-07-28T11:51:49;100508.38;;;22.59;64.50
79006;BME280;69202;45.498;-73.582;2023-07-28T11:54:17;100590.28;;;23.08;62.77
79006;BME280;69202;45.498;-73.582;2023-07-28T11:56:50;100574.25;;;23.10;59.45
79006;BME280;69202;45.498;-73.582;2023-07-28T11:59:18;100401.78;;;22.00;58.37
79006;BME280;69202;45.498;-73.582;2023-07-28T12:02:03;100559.50;;;22.80;58.31
79006;BME280;69202;45.498;-73.582;2023-07-28T12:04:39;100415.28;;;21.96;59.66
79006;BME280;69202;45.498;-73.582;2023-07-28T12:07:16;100457.28;;;22.27;60.55
79006;BME280;69202;45.498;-73.582;2023-07-28T12:09:49;100608.88;;;23.31;62.00
79006;BME280;69202;45.498;-73.582;2023-07-28T12:12:19;100482.72;;;22.63;61.82
79006;BME280;69202;45.498;-73.582;2023-07-28T12:14:45;100500.88;;;22.69;59.03
79006;BME280;69202;45.498;-73.582;2023-07-28T12:17:14;100634.44;;;23.42;59.46
79006;BME280;69202;45.498;-73.582;2023-07-28T12:20:04;100606.69;;;23.28;59.92
79006;BME280;69202;45.498;-73.582;2023-07-28T12:22:44;100630.28;;;23.44;63.10
79006;BME280;69202;45.498;-73.582;2023-07-28T12:25:13;100603.19;;;23.17;62.85
79006;BME280;69202;45.498;-73.582;2023-07-28T12:27:40;100635.81;;;23.44;63.13
79006;BME280;69202;45.498;-73.582;2023-07-28T12:30:07;100525.97;;;22.68;61.45
79006;BME280;69202;45.498;-73.582;2023-07-28T12:32:34;100444.50;;;21.92;58.25
79006;BME280;69202;45.498;-73.582;2023-07-28T12:35:00;100280.28;;;20.97;58.52
79006;BME280;69202;45.498;-73.582;2023-07-28T12:37:26;100537.44;;;22.36;59.83
79006;BME280;69202;45.498;-73.582;2023-07-28T12:39:52;100468.13;;;22.08;65.04
79006;BME280;69202;45.498;-73.582;2023-07-28T12:42:18;100473.03;;;22.22;62.73
79006;BME280;69202;45.498;-73.582;2023-07-28T12:44:45;100644.22;;;23.24;64.63
79006;BME280;69202;45.498;-73.582;2023-07-28T12:47:11;100640.41;;;23.20;61.30
79006;BME280;69202;45.498;-73.582;2023-07-28T12:49:37;100623.63;;;23.11;58.02